Time;durP1;ratioP1;P1;durP2;ratioP2;P2;SDS_P1;SDS_P2;PMS_P1;PMS_P2;Temp;Humidity;BMP_temperature;BMP_pressure;BME280_temperature;BME280_humidity;BME280_pressure;Samples;Min_cycle;Max_cycle;Signal;HPM_P1;HPM_P2
2022/04/26 03:38:16;;;;;;;5.90;3.13;;;18.50;60.90;;;;;;5012961;28;20479;-61
2022/04/26 03:40:42;;;;;;;5.63;2.85;;;18.40;60.90;;;;;;5019363;28;20072;-61
2022/04/26 03:43:07;;;;;;;5.82;3.15;;;18.40;60.90;;;;;;5021763;28;20041;-61
2022/04/26 03:45:33;;;;;;;5.18;2.90;;;18.40;60.90;;;;;;5014819;28;20030;-61
2022/04/26 03:47:58;;;;;;;5.72;3.20;;;18.40;60.90;;;;;;5016491;28;20045;-62
2022/04/26 03:50:24;;;;;;;4.90;2.90;;;18.40;61.00;;;;;;5013250;28;20029;-61
2022/04/26 03:52:52;;;;;;;9.68;3.00;;;18.40;61.00;;;;;;5019955;28;20029;-61
2022/04/26 03:55:19;;;;;;;4.53;2.75;;;18.40;61.00;;;;;;5019070;28;20038;-61
2022/04/26 03:57:45;;;;;;;4.75;2.80;;;18.40;60.90;;;;;;5019128;28;20033;-61
2022/04/26 04:00:11;;;;;;;6.25;3.30;;;18.40;61.00;;;;;;5013457;28;20056;-61
2022/04/26 04:02:37;;;;;;;5.18;2.90;;;18.40;60.90;;;;;;5013843;28;20025;-62
2022/04/26 04:05:02;;;;;;;5.47;2.83;;;18.40;61.10;;;;;;5015309;28;20129;-61
2022/04/26 04:07:28;;;;;;;5.10;2.83;;;18.40;61.00;;;;;;5012447;28;20073;-61
2022/04/26 04:09:55;;;;;;;4.47;2.58;;;18.30;61.00;;;;;;5020122;28;20055;-61
2022/04/26 04:12:21;;;;;;;5.20;2.85;;;18.40;61.10;;;;;;5018323;28;20494;-61
2022/04/26 04:14:47;;;;;;;5.22;2.78;;;18.30;61.00;;;;;;5014957;28;20068;-61
2022/04/26 04:17:12;;;;;;;5.53;2.88;;;18.30;61.00;;;;;;5015214;28;20030;-61
2022/04/26 04:19:38;;;;;;;5.40;2.92;;;18.30;60.90;;;;;;5009995;28;20029;-61
2022/04/26 04:22:05;;;;;;;5.22;3.15;;;18.30;60.90;;;;;;5021175;28;20095;-61
2022/04/26 04:24:30;;;;;;;5.32;2.80;;;18.30;61.00;;;;;;5014991;28;20034;-61
2022/04/26 04:26:56;;;;;;;5.80;2.65;;;18.30;61.00;;;;;;5016190;28;20107;-61
2022/04/26 04:29:21;;;;;;;5.30;2.83;;;18.30;61.00;;;;;;5013308;28;20021;-61
2022/04/26 04:31:47;;;;;;;5.38;2.80;;;18.30;61.00;;;;;;5019558;28;20257;-61
2022/04/26 04:34:13;;;;;;;6.15;2.95;;;18.30;61.00;;;;;;5019486;28;20018;-61
2022/04/26 04:36:38;;;;;;;4.28;2.75;;;18.30;61.00;;;;;;5014043;28;20033;-62
2022/04/26 04:39:04;;;;;;;4.75;2.78;;;18.30;61.00;;;;;;5014050;28;20050;-62
2022/04/26 04:41:36;;;;;;;5.22;2.90;;;18.30;61.00;;;;;;5021703;28;20045;-61
2022/04/26 04:44:04;;;;;;;5.85;2.83;;;18.20;61.00;;;;;;5014488;28;20817;-61
2022/04/26 04:46:29;;;;;;;5.78;2.88;;;18.20;60.90;;;;;;5019402;28;20061;-61
2022/04/26 04:48:55;;;;;;;7.30;3.47;;;18.30;61.00;;;;;;5017417;28;20053;-62
2022/04/26 04:51:21;;;;;;;5.80;3.15;;;18.20;61.20;;;;;;5021236;28;20032;-61
2022/04/26 04:53:46;;;;;;;6.55;3.80;;;18.30;61.30;;;;;;5014752;28;20022;-61
2022/04/26 04:56:12;;;;;;;6.43;4.25;;;18.40;61.60;;;;;;5025369;28;20033;-61
2022/04/26 04:58:38;;;;;;;8.93;4.93;;;18.70;61.50;;;;;;5016838;28;20049;-61
2022/04/26 05:01:04;;;;;;;8.98;5.10;;;18.80;61.30;;;;;;5022158;28;20025;-61
2022/04/26 05:03:29;;;;;;;9.55;5.70;;;19.00;61.10;;;;;;5020376;28;20026;-61
2022/04/26 05:05:55;;;;;;;9.32;5.75;;;19.20;61.40;;;;;;5016434;28;20107;-61
2022/04/26 05:08:20;;;;;;;8.25;5.30;;;19.10;61.00;;;;;;5015784;28;20032;-61
2022/04/26 05:10:46;;;;;;;9.00;5.40;;;19.00;61.20;;;;;;5017274;28;20108;-62
2022/04/26 05:13:12;;;;;;;8.95;5.47;;;18.90;61.40;;;;;;5015895;28;20033;-62
2022/04/26 05:15:38;;;;;;;9.68;6.00;;;18.80;62.50;;;;;;5015646;28;20126;-61
2022/04/26 05:18:05;;;;;;;8.65;5.50;;;18.70;61.70;;;;;;5019215;28;20036;-62
2022/04/26 05:20:31;;;;;;;13.75;5.75;;;18.70;62.20;;;;;;5015018;28;20037;-61
2022/04/26 05:25:41;;;;;;;11.47;5.60;;;18.60;63.60;;;;;;5019317;28;20049;-61
2022/04/26 05:28:07;;;;;;;10.93;5.78;;;18.60;63.60;;;;;;5019543;28;20029;-62
2022/04/26 05:30:33;;;;;;;8.63;5.57;;;18.60;64.00;;;;;;5021090;28;20119;-62
2022/04/26 05:32:58;;;;;;;11.35;5.43;;;18.60;63.60;;;;;;5021766;28;20345;-62
2022/04/26 05:35:24;;;;;;;11.80;5.80;;;18.60;63.00;;;;;;5017502;28;20116;-62
2022/04/26 05:37:50;;;;;;;13.32;5.20;;;18.60;64.40;;;;;;5011852;28;20092;-62
2022/04/26 05:40:15;;;;;;;12.00;4.93;;;18.60;63.80;;;;;;5021247;28;20095;-61
2022/04/26 05:42:41;;;;;;;11.68;5.30;;;18.60;63.70;;;;;;5014141;28;20061;-62
2022/04/26 05:45:07;;;;;;;10.88;4.80;;;18.50;63.80;;;;;;5014195;28;20036;-61
2022/04/26 05:47:33;;;;;;;11.52;4.82;;;18.50;63.50;;;;;;5011969;28;20053;-62
2022/04/26 05:49:58;;;;;;;12.65;5.03;;;18.50;63.50;;;;;;5011733;28;20449;-62
2022/04/26 05:52:24;;;;;;;11.43;4.80;;;18.50;63.50;;;;;;5013982;28;20084;-62
2022/04/26 05:54:51;;;;;;;12.50;5.00;;;18.50;63.50;;;;;;5020370;28;20066;-62
2022/04/26 05:57:17;;;;;;;15.85;4.90;;;18.50;63.20;;;;;;5016705;28;20052;-62
2022/04/26 05:59:42;;;;;;;12.40;4.85;;;18.50;63.30;;;;;;5014943;28;20498;-62
2022/04/26 06:02:08;;;;;;;14.02;5.10;;;18.50;63.10;;;;;;5017947;28;20502;-62
2022/04/26 06:04:34;;;;;;;9.80;4.82;;;18.50;63.10;;;;;;5012670;28;20612;-62
2022/04/26 06:07:00;;;;;;;10.95;4.88;;;18.50;63.30;;;;;;5016855;28;20049;-62
2022/04/26 06:09:26;;;;;;;9.45;4.32;;;18.50;63.00;;;;;;5015794;28;20116;-62
2022/04/26 06:11:52;;;;;;;8.93;4.30;;;18.50;63.40;;;;;;5020054;28;20550;-62
2022/04/26 06:14:17;;;;;;;10.70;4.75;;;18.50;63.10;;;;;;5012096;28;20025;-62
2022/04/26 06:16:43;;;;;;;9.27;4.38;;;18.50;62.90;;;;;;5018161;28;20030;-62
2022/04/26 06:19:10;;;;;;;8.70;4.40;;;18.50;63.30;;;;;;5024210;28;20022;-62
2022/04/26 06:21:35;;;;;;;10.23;4.88;;;18.50;63.40;;;;;;5026016;28;20033;-62
2022/04/26 06:24:01;;;;;;;8.02;4.28;;;18.50;63.20;;;;;;5017523;28;20505;-62
2022/04/26 06:26:27;;;;;;;11.02;4.45;;;18.40;63.20;;;;;;5013834;28;20033;-62
2022/04/26 06:28:52;;;;;;;13.38;4.93;;;18.40;63.30;;;;;;5022946;28;20437;-62
2022/04/26 06:31:18;;;;;;;11.20;4.78;;;18.40;63.20;;;;;;5018984;28;20380;-62
2022/04/26 06:33:44;;;;;;;12.60;4.70;;;18.40;63.30;;;;;;5022980;28;20499;-62
2022/04/26 06:36:09;;;;;;;10.80;4.30;;;18.40;63.20;;;;;;5026003;28;20033;-62
2022/04/26 06:38:35;;;;;;;10.52;4.60;;;18.40;63.00;;;;;;5017688;28;20414;-62
2022/04/26 06:41:01;;;;;;;9.68;3.92;;;18.40;63.20;;;;;;5016491;28;20548;-62
2022/04/26 06:43:29;;;;;;;12.15;4.40;;;18.40;63.00;;;;;;5020272;28;20022;-62
2022/04/26 06:45:55;;;;;;;11.38;4.30;;;18.40;63.00;;;;;;5025310;28;20529;-62
2022/04/26 06:48:20;;;;;;;10.10;4.20;;;18.40;63.20;;;;;;5029840;28;20053;-62
2022/04/26 06:50:46;;;;;;;8.20;4.38;;;18.40;63.10;;;;;;5024912;28;20021;-62
2022/04/26 06:53:13;;;;;;;11.45;4.20;;;18.40;63.20;;;;;;5015177;28;20436;-61
2022/04/26 06:55:38;;;;;;;9.48;4.13;;;18.40;63.10;;;;;;5024518;28;20036;-63
2022/04/26 06:58:04;;;;;;;11.90;4.45;;;18.40;63.10;;;;;;5023588;28;20034;-62
2022/04/26 07:00:30;;;;;;;13.10;4.50;;;18.40;63.00;;;;;;5022004;28;20034;-63
2022/04/26 07:02:56;;;;;;;10.48;4.50;;;18.40;63.10;;;;;;5021917;28;20022;-62
2022/04/26 07:05:22;;;;;;;12.43;4.43;;;18.40;63.30;;;;;;5022323;28;20064;-62
2022/04/26 07:07:49;;;;;;;10.98;4.53;;;18.40;63.00;;;;;;5018807;28;20030;-62
2022/04/26 07:10:15;;;;;;;10.10;4.40;;;18.40;63.20;;;;;;5015527;28;20092;-62
2022/04/26 07:12:41;;;;;;;8.40;4.00;;;18.40;64.00;;;;;;5024061;28;20501;-62
2022/04/26 07:15:07;;;;;;;10.23;4.20;;;18.40;62.90;;;;;;5022609;28;20060;-62
2022/04/26 07:17:32;;;;;;;8.07;4.15;;;18.40;63.00;;;;;;5020666;28;20026;-62
2022/04/26 07:19:58;;;;;;;11.50;4.38;;;18.40;63.10;;;;;;5026750;28;20037;-62
2022/04/26 07:22:25;;;;;;;11.77;4.18;;;18.40;63.20;;;;;;5027189;28;20048;-62
2022/04/26 07:24:50;;;;;;;8.50;3.80;;;18.40;63.00;;;;;;5020128;28;20037;-63
2022/04/26 07:27:16;;;;;;;9.13;4.32;;;18.40;63.10;;;;;;5021711;28;20044;-62
2022/04/26 07:29:43;;;;;;;9.88;4.18;;;18.40;63.00;;;;;;5017339;28;20083;-62
2022/04/26 07:32:09;;;;;;;8.93;4.43;;;18.40;63.10;;;;;;5021418;28;20040;-62
2022/04/26 07:34:35;;;;;;;6.93;3.78;;;18.40;63.10;;;;;;5031260;28;20112;-62
2022/04/26 07:37:02;;;;;;;8.27;3.92;;;18.40;63.10;;;;;;5018302;28;20483;-62
2022/04/26 07:39:33;;;;;;;8.93;4.18;;;18.50;63.10;;;;;;5017408;28;20029;-63
2022/04/26 07:41:59;;;;;;;7.72;4.22;;;18.40;63.10;;;;;;5023033;28;20460;-62
2022/04/26 07:44:25;;;;;;;9.88;3.83;;;18.50;63.10;;;;;;5015699;28;20033;-62
2022/04/26 07:46:50;;;;;;;11.50;4.40;;;18.50;63.20;;;;;;5018277;28;20085;-62
2022/04/26 07:49:16;;;;;;;11.10;4.40;;;18.50;63.20;;;;;;5018246;28;20111;-62
2022/04/26 07:51:42;;;;;;;9.88;4.68;;;18.50;63.10;;;;;;5029135;28;20043;-63
2022/04/26 07:54:09;;;;;;;9.77;4.22;;;18.50;63.20;;;;;;5028475;28;20029;-63
2022/04/26 07:56:35;;;;;;;9.15;4.20;;;18.50;62.90;;;;;;5017428;28;20021;-62
2022/04/26 07:59:03;;;;;;;8.45;4.28;;;18.50;62.90;;;;;;5018374;28;20508;-62
2022/04/26 08:01:32;;;;;;;9.98;4.35;;;18.50;63.10;;;;;;5035230;28;20041;-62
2022/04/26 08:03:58;;;;;;;10.15;4.55;;;18.50;63.10;;;;;;5027374;28;20054;-62
2022/04/26 08:06:24;;;;;;;7.85;4.03;;;18.50;63.30;;;;;;5014267;28;20131;-62
2022/04/26 08:08:50;;;;;;;9.98;4.65;;;18.50;63.20;;;;;;5019131;28;20504;-62
2022/04/26 08:11:16;;;;;;;8.00;4.40;;;18.60;63.20;;;;;;5016027;28;20030;-62
2022/04/26 08:13:41;;;;;;;8.95;4.55;;;18.50;63.10;;;;;;5027470;28;20036;-62
2022/04/26 08:16:08;;;;;;;8.82;4.30;;;18.60;63.20;;;;;;5027629;28;20054;-62
2022/04/26 08:18:33;;;;;;;9.32;4.18;;;18.60;63.10;;;;;;5015203;28;20442;-62
2022/04/26 08:20:59;;;;;;;10.68;4.35;;;18.60;63.10;;;;;;5020917;28;20263;-62
2022/04/26 08:23:25;;;;;;;9.35;4.38;;;18.60;63.20;;;;;;5020388;28;20449;-62
2022/04/26 08:28:35;;;;;;;8.23;3.90;;;18.60;63.00;;;;;;5015662;28;20041;-62
2022/04/26 08:31:00;;;;;;;7.70;4.20;;;18.60;63.00;;;;;;5023379;28;20030;-62
2022/04/26 08:33:30;;;;;;;7.82;4.30;;;18.60;63.00;;;;;;5020505;28;20033;-62
2022/04/26 08:35:56;;;;;;;9.00;4.57;;;18.60;62.90;;;;;;5020812;28;20037;-62
2022/04/26 08:38:21;;;;;;;8.88;4.45;;;18.60;62.90;;;;;;5021233;28;20041;-62
2022/04/26 08:40:47;;;;;;;8.50;4.40;;;18.70;62.90;;;;;;5028454;28;20058;-61
2022/04/26 08:43:13;;;;;;;8.70;4.50;;;18.70;63.00;;;;;;5022386;28;20105;-62
2022/04/26 08:45:39;;;;;;;8.43;4.65;;;18.70;62.80;;;;;;5015177;28;20180;-62
2022/04/26 08:50:59;;;;;;;8.43;4.35;;;18.70;62.80;;;;;;5016341;28;20075;-63
2022/04/26 08:53:26;;;;;;;8.85;4.32;;;18.70;62.80;;;;;;5020529;28;20048;-62
2022/04/26 08:55:55;;;;;;;8.32;4.55;;;18.70;62.80;;;;;;5024175;28;20030;-62
2022/04/26 08:58:22;;;;;;;8.52;4.18;;;18.70;62.80;;;;;;5018256;28;20075;-62
2022/04/26 09:01:08;;;;;;;9.48;4.35;;;18.70;62.80;;;;;;5021556;28;20030;-63
2022/04/26 09:03:54;;;;;;;9.35;4.18;;;18.70;62.70;;;;;;5021400;28;20032;-62
2022/04/26 09:06:33;;;;;;;8.48;4.20;;;18.70;62.70;;;;;;5020636;28;20475;-62
2022/04/26 09:09:25;;;;;;;7.85;4.20;;;18.80;62.70;;;;;;5015093;28;20022;-62
2022/04/26 09:11:52;;;;;;;8.95;4.30;;;18.80;62.50;;;;;;5017153;28;20067;-62
2022/04/26 09:14:36;;;;;;;8.65;4.07;;;18.80;62.50;;;;;;5015737;28;20038;-62
2022/04/26 09:17:05;;;;;;;9.45;4.60;;;18.90;62.50;;;;;;5016397;28;20025;-62
2022/04/26 09:19:50;;;;;;;7.85;4.40;;;18.80;62.40;;;;;;5032997;28;20029;-63
2022/04/26 09:22:17;;;;;;;7.05;4.10;;;18.90;62.40;;;;;;5020361;28;20026;-62
2022/04/26 09:24:55;;;;;;;7.38;4.20;;;18.90;62.40;;;;;;5025777;28;20506;-62
2022/04/26 09:27:21;;;;;;;10.50;4.20;;;18.90;62.40;;;;;;5021530;28;20033;-62
2022/04/26 09:29:47;;;;;;;7.32;4.20;;;18.90;62.30;;;;;;5016732;28;20029;-63
2022/04/26 09:32:13;;;;;;;8.80;4.45;;;18.90;62.30;;;;;;5019186;28;20483;-62
2022/04/26 09:34:38;;;;;;;7.82;4.03;;;18.90;62.20;;;;;;5019962;28;20025;-62
2022/04/26 09:37:04;;;;;;;8.43;4.18;;;18.90;62.30;;;;;;5024393;28;20124;-62
2022/04/26 09:39:30;;;;;;;8.00;4.38;;;18.90;62.10;;;;;;5021293;28;20044;-62
2022/04/26 09:41:56;;;;;;;7.88;4.00;;;18.90;62.10;;;;;;5018420;28;20025;-62
2022/04/26 09:44:31;;;;;;;8.05;4.20;;;18.90;62.10;;;;;;5015844;28;20117;-61
2022/04/26 09:46:57;;;;;;;7.07;3.95;;;18.90;62.10;;;;;;5022401;28;20054;-62
2022/04/26 09:49:23;;;;;;;6.53;3.53;;;18.90;62.20;;;;;;5013880;28;20576;-62
2022/04/26 09:52:01;;;;;;;7.95;3.90;;;18.90;62.10;;;;;;5022180;28;20026;-62
2022/04/26 09:54:27;;;;;;;7.35;3.67;;;18.90;62.00;;;;;;5023243;28;20029;-62
2022/04/26 09:56:52;;;;;;;7.50;4.13;;;18.90;62.00;;;;;;5021438;28;20032;-62
2022/04/26 09:59:29;;;;;;;7.50;3.90;;;19.00;61.90;;;;;;5015704;28;20541;-62
2022/04/26 10:01:57;;;;;;;7.80;3.90;;;19.00;61.90;;;;;;5012674;28;20521;-62
2022/04/26 10:04:26;;;;;;;9.02;4.10;;;19.00;61.80;;;;;;5020501;28;20041;-62
2022/04/26 10:06:56;;;;;;;7.75;3.92;;;19.00;61.70;;;;;;5021166;28;20553;-63
2022/04/26 10:09:21;;;;;;;7.22;3.45;;;19.00;61.70;;;;;;5016379;28;20025;-62
2022/04/26 10:11:47;;;;;;;7.03;3.65;;;19.00;61.60;;;;;;5025833;28;20029;-62
2022/04/26 10:14:13;;;;;;;7.88;3.80;;;19.00;61.50;;;;;;5021843;28;20029;-62
2022/04/26 10:16:39;;;;;;;7.13;3.40;;;19.10;61.50;;;;;;5021114;28;20029;-62
2022/04/26 10:19:08;;;;;;;7.28;3.85;;;19.10;61.40;;;;;;5025789;28;20033;-62
2022/04/26 10:21:39;;;;;;;7.20;3.70;;;19.10;61.30;;;;;;5017418;28;20125;-62
2022/04/26 10:24:16;;;;;;;6.15;3.55;;;19.10;61.20;;;;;;5022010;28;20030;-62
2022/04/26 10:26:42;;;;;;;5.57;3.40;;;19.10;61.20;;;;;;5018076;28;20034;-62
2022/04/26 10:29:07;;;;;;;7.78;3.80;;;19.20;61.10;;;;;;5028552;28;20042;-62
2022/04/26 10:31:49;;;;;;;6.78;3.50;;;19.20;61.10;;;;;;5014773;28;20132;-62
2022/04/26 10:34:20;;;;;;;8.85;3.70;;;19.20;61.10;;;;;;5033623;28;20106;-62
2022/04/26 10:36:47;;;;;;;6.10;3.50;;;19.20;61.30;;;;;;5022991;28;20494;-62
2022/04/26 10:39:12;;;;;;;5.53;3.20;;;19.20;61.00;;;;;;5029040;28;20486;-62
2022/04/26 10:41:45;;;;;;;6.28;3.60;;;19.20;61.00;;;;;;5019698;28;20021;-62
2022/04/26 10:44:14;;;;;;;6.20;3.20;;;19.20;61.00;;;;;;5020414;28;20564;-62
2022/04/26 10:46:51;;;;;;;7.35;3.53;;;19.30;61.10;;;;;;5017272;28;20065;-62
2022/04/26 10:49:23;;;;;;;6.65;3.50;;;19.30;61.00;;;;;;5022196;28;20022;-62
2022/04/26 10:51:51;;;;;;;6.15;3.08;;;19.30;61.00;;;;;;5022136;28;20026;-62
2022/04/26 10:54:46;;;;;;;7.18;3.70;;;19.30;61.00;;;;;;5025044;28;20025;-62
2022/04/26 10:57:16;;;;;;;6.38;3.35;;;19.30;61.00;;;;;;5019714;28;20044;-62
2022/04/26 10:59:46;;;;;;;7.60;3.47;;;19.30;61.00;;;;;;5026774;28;20059;-62
2022/04/26 11:02:14;;;;;;;7.70;3.15;;;19.30;61.00;;;;;;5013190;28;20032;-62
2022/04/26 11:04:40;;;;;;;7.10;3.42;;;19.30;61.00;;;;;;5021840;28;20042;-62
2022/04/26 11:07:16;;;;;;;6.68;3.38;;;19.30;61.00;;;;;;5026219;28;20042;-62
2022/04/26 11:09:49;;;;;;;6.60;3.35;;;19.30;61.00;;;;;;5021890;28;20053;-62
2022/04/26 11:12:18;;;;;;;6.60;3.30;;;19.30;61.00;;;;;;5018019;28;20052;-62
2022/04/26 11:14:45;;;;;;;6.47;3.20;;;19.30;61.00;;;;;;5017888;28;20041;-62
2022/04/26 11:17:11;;;;;;;7.10;3.35;;;19.30;61.00;;;;;;5017183;28;20022;-62
2022/04/26 11:19:37;;;;;;;7.28;3.13;;;19.30;61.00;;;;;;5021870;28;20034;-62
2022/04/26 11:22:07;;;;;;;6.78;3.60;;;19.40;61.10;;;;;;5025814;28;20046;-62
2022/04/26 11:30:02;;;;;;;6.13;2.83;;;19.40;61.00;;;;;;5015686;28;20076;-62
2022/04/26 11:32:31;;;;;;;5.93;3.45;;;19.40;61.00;;;;;;5013841;28;20037;-62
2022/04/26 11:34:57;;;;;;;5.72;3.28;;;19.40;60.90;;;;;;5018336;28;20026;-62
2022/04/26 11:37:23;;;;;;;5.95;3.20;;;19.50;60.70;;;;;;5022319;28;20018;-62
2022/04/26 11:39:49;;;;;;;5.50;2.90;;;19.50;60.60;;;;;;5016783;28;20088;-62
2022/04/26 11:42:15;;;;;;;6.15;3.10;;;19.50;60.70;;;;;;5026169;28;20014;-62
2022/04/26 11:45:01;;;;;;;6.43;3.10;;;19.50;60.70;;;;;;5015401;28;20040;-62
2022/04/26 11:47:49;;;;;;;6.70;3.17;;;19.50;60.60;;;;;;5020597;28;20053;-62
2022/04/26 11:50:15;;;;;;;5.43;2.78;;;19.50;60.60;;;;;;5013001;28;20034;-62
2022/04/26 11:52:43;;;;;;;6.65;3.20;;;19.50;60.70;;;;;;5021434;28;20483;-62
2022/04/26 11:55:31;;;;;;;5.75;3.20;;;19.50;60.70;;;;;;5020309;28;20033;-62
2022/04/26 11:58:13;;;;;;;5.50;3.10;;;19.50;60.80;;;;;;5018430;28;20041;-62
2022/04/26 12:00:59;;;;;;;5.53;3.15;;;19.50;60.70;;;;;;5024052;28;20513;-62
2022/04/26 12:03:30;;;;;;;5.95;3.17;;;19.50;60.80;;;;;;5024601;28;20064;-62
2022/04/26 12:06:06;;;;;;;5.43;3.05;;;19.50;60.70;;;;;;5027783;28;20029;-63
2022/04/26 12:08:40;;;;;;;5.18;2.72;;;19.50;60.70;;;;;;5015805;28;20030;-62
2022/04/26 12:11:26;;;;;;;5.13;2.77;;;19.50;60.60;;;;;;5021125;28;20292;-63
2022/04/26 12:14:12;;;;;;;6.47;3.10;;;19.50;60.50;;;;;;5013114;28;20312;-62
2022/04/26 12:16:41;;;;;;;5.15;2.70;;;19.50;60.50;;;;;;5024798;28;20121;-62
2022/04/26 12:19:07;;;;;;;6.40;3.10;;;19.60;60.40;;;;;;5022420;28;20045;-62
2022/04/26 12:21:48;;;;;;;6.13;2.90;;;19.60;60.20;;;;;;5020683;28;20069;-62
2022/04/26 12:24:24;;;;;;;4.88;2.92;;;19.60;60.20;;;;;;5027559;28;20124;-62
2022/04/26 12:26:50;;;;;;;6.07;3.10;;;19.70;60.20;;;;;;5017173;28;20148;-62
2022/04/26 12:29:16;;;;;;;5.68;3.03;;;19.70;60.20;;;;;;5018078;28;20554;-62
2022/04/26 12:31:46;;;;;;;4.45;2.60;;;19.70;60.20;;;;;;5023953;28;20470;-62
2022/04/26 12:34:19;;;;;;;5.70;3.17;;;19.70;60.20;;;;;;5014669;28;20053;-62
2022/04/26 12:37:06;;;;;;;6.00;3.15;;;19.70;60.20;;;;;;5030411;28;20041;-61
2022/04/26 12:39:38;;;;;;;6.85;2.65;;;19.70;60.20;;;;;;5018797;28;20068;-62
2022/04/26 12:42:04;;;;;;;5.85;3.10;;;19.80;60.00;;;;;;5016859;28;20026;-62
2022/04/26 12:44:30;;;;;;;4.63;2.58;;;19.80;60.00;;;;;;5019953;28;20038;-62
2022/04/26 12:52:47;;;;;;;5.78;2.90;;;19.80;60.10;;;;;;5018314;28;20056;-62
2022/04/26 12:55:24;;;;;;;5.40;3.10;;;19.90;60.00;;;;;;5020437;28;20026;-62
2022/04/26 12:57:50;;;;;;;7.00;3.30;;;19.90;60.80;;;;;;5024486;28;20528;-62
2022/04/26 13:00:17;;;;;;;4.57;2.78;;;19.90;59.80;;;;;;5020382;28;20017;-62
2022/04/26 13:02:42;;;;;;;5.85;3.28;;;19.90;59.90;;;;;;5016616;28;20046;-62
2022/04/26 13:05:08;;;;;;;5.80;3.05;;;20.00;59.70;;;;;;5017648;28;20301;-62
2022/04/26 13:07:34;;;;;;;5.07;2.80;;;20.00;59.70;;;;;;5014740;28;20120;-62
2022/04/26 13:09:59;;;;;;;5.30;2.70;;;20.00;59.70;;;;;;5023893;28;20037;-62
2022/04/26 13:12:26;;;;;;;5.47;3.17;;;20.00;59.70;;;;;;5021985;28;20029;-62
2022/04/26 13:14:52;;;;;;;5.03;2.83;;;20.00;59.50;;;;;;5016887;28;20021;-62
2022/04/26 13:17:20;;;;;;;5.70;3.08;;;20.00;59.60;;;;;;5015385;28;20104;-62
2022/04/26 13:19:47;;;;;;;5.50;2.95;;;20.00;59.60;;;;;;5024634;28;20026;-62
2022/04/26 13:22:14;;;;;;;5.68;2.90;;;20.00;59.70;;;;;;5019485;28;20033;-62
2022/04/26 13:24:39;;;;;;;4.40;2.97;;;20.00;59.50;;;;;;5024048;28;20379;-62
2022/04/26 13:27:06;;;;;;;5.43;3.08;;;20.00;59.50;;;;;;5019637;28;20069;-62
2022/04/26 13:29:32;;;;;;;4.85;2.83;;;20.10;59.50;;;;;;5010629;28;20412;-62
2022/04/26 13:31:58;;;;;;;5.22;3.10;;;20.10;59.40;;;;;;5017002;28;20034;-62
2022/04/26 13:34:24;;;;;;;5.15;2.90;;;20.20;59.40;;;;;;5022854;28;20050;-63
2022/04/26 13:36:50;;;;;;;5.47;3.00;;;20.20;59.40;;;;;;5022954;28;20072;-62
2022/04/26 13:39:16;;;;;;;5.88;2.90;;;20.20;59.40;;;;;;5020472;28;20060;-62
2022/04/26 13:41:41;;;;;;;4.50;2.70;;;20.20;59.40;;;;;;5013587;28;20470;-62
2022/04/26 13:44:07;;;;;;;5.75;2.92;;;20.20;59.40;;;;;;5022573;28;20038;-62
2022/04/26 13:46:32;;;;;;;4.00;2.65;;;20.20;59.20;;;;;;5016978;28;20061;-62
2022/04/26 13:48:58;;;;;;;4.88;3.00;;;20.30;59.20;;;;;;5026082;28;20026;-62
2022/04/26 13:51:29;;;;;;;4.50;2.80;;;20.30;59.10;;;;;;5018968;28;20028;-63
2022/04/26 13:53:54;;;;;;;5.85;2.92;;;20.30;59.00;;;;;;5022821;28;20056;-62
2022/04/26 13:56:20;;;;;;;4.43;2.72;;;20.40;59.10;;;;;;5012297;28;20065;-62
2022/04/26 13:58:46;;;;;;;5.43;2.85;;;20.40;59.10;;;;;;5024974;28;20026;-62
2022/04/26 14:01:11;;;;;;;5.22;2.90;;;20.40;59.10;;;;;;5016674;28;20076;-62
2022/04/26 14:03:37;;;;;;;5.93;2.90;;;20.40;59.10;;;;;;5017433;28;20033;-62
2022/04/26 14:06:03;;;;;;;6.30;3.10;;;20.40;59.10;;;;;;5016600;28;20057;-62
2022/04/26 14:08:31;;;;;;;5.97;3.03;;;20.40;59.00;;;;;;5020602;28;20397;-62
2022/04/26 14:10:57;;;;;;;6.13;3.05;;;20.40;58.90;;;;;;5016462;28;20112;-62
2022/04/26 14:13:22;;;;;;;6.13;3.10;;;20.50;59.00;;;;;;5028240;28;20036;-63
2022/04/26 14:24:06;;;;;;;4.70;2.70;;;20.50;59.00;;;;;;5017916;28;20060;-63
2022/04/26 14:26:31;;;;;;;6.32;3.00;;;20.50;58.80;;;;;;5022972;28;20125;-63
2022/04/26 14:28:57;;;;;;;5.90;2.97;;;20.50;58.80;;;;;;5015647;28;20441;-62
2022/04/26 14:31:23;;;;;;;6.43;3.05;;;20.50;58.80;;;;;;5013280;28;20033;-62
2022/04/26 14:33:48;;;;;;;5.30;3.00;;;20.50;58.90;;;;;;5017594;28;20030;-62
2022/04/26 14:36:14;;;;;;;6.75;3.20;;;20.50;58.70;;;;;;5016356;28;20025;-63
2022/04/26 14:38:40;;;;;;;4.75;2.83;;;20.60;58.70;;;;;;5019697;28;20029;-62
2022/04/26 14:41:05;;;;;;;4.70;2.90;;;20.60;58.60;;;;;;5020318;28;20112;-62
2022/04/26 14:43:31;;;;;;;5.82;2.85;;;20.60;58.60;;;;;;5014441;28;20403;-62
2022/04/26 14:45:57;;;;;;;5.70;3.08;;;20.60;58.60;;;;;;5022363;28;20498;-63
2022/04/26 14:48:23;;;;;;;4.82;2.90;;;20.60;58.60;;;;;;5022752;28;20060;-63
2022/04/26 14:50:49;;;;;;;5.25;3.00;;;20.60;58.70;;;;;;5018319;28;20024;-63
2022/04/26 14:53:15;;;;;;;5.35;3.10;;;20.60;58.70;;;;;;5016367;28;20072;-62
2022/04/26 14:55:41;;;;;;;5.88;3.03;;;20.60;58.60;;;;;;5017481;28;20038;-62
2022/04/26 14:58:09;;;;;;;4.65;2.90;;;20.60;58.70;;;;;;5017211;28;20041;-62
2022/04/26 15:00:35;;;;;;;4.72;2.90;;;20.60;58.50;;;;;;5019652;28;20264;-63
2022/04/26 15:03:02;;;;;;;6.20;3.20;;;20.70;58.40;;;;;;5023403;28;20489;-62
2022/04/26 15:05:28;;;;;;;5.70;3.15;;;20.70;58.30;;;;;;5018114;28;20288;-62
2022/04/26 15:10:38;;;;;;;5.40;3.10;;;20.70;58.40;;;;;;5018622;28;20528;-63
2022/04/26 15:18:32;;;;;;;13.90;6.97;;;20.60;55.10;;;;;;5030033;28;20118;-63
2022/04/26 15:21:00;;;;;;;12.20;6.82;;;20.60;54.00;;;;;;5030866;28;20072;-63
2022/04/26 15:23:27;;;;;;;16.13;7.47;;;20.60;53.70;;;;;;5016659;28;20141;-63
2022/04/26 15:25:55;;;;;;;14.80;7.55;;;20.50;52.80;;;;;;5030494;28;20157;-63
2022/04/26 15:28:24;;;;;;;13.40;7.47;;;20.50;52.30;;;;;;5031353;28;20029;-63
2022/04/26 15:30:50;;;;;;;16.50;7.78;;;20.50;52.60;;;;;;5016650;28;20096;-63
2022/04/26 15:33:19;;;;;;;16.80;7.88;;;20.60;52.40;;;;;;5018596;28;20025;-63
2022/04/26 15:35:45;;;;;;;16.08;7.78;;;20.60;52.30;;;;;;5022969;28;20060;-62
2022/04/26 15:38:12;;;;;;;15.32;8.07;;;20.60;51.90;;;;;;5021525;28;20489;-63
2022/04/26 15:40:40;;;;;;;15.93;8.27;;;20.70;52.00;;;;;;5030090;28;20060;-64
2022/04/26 15:43:06;;;;;;;15.45;7.60;;;20.60;51.80;;;;;;5018227;28;20037;-64
2022/04/26 15:45:32;;;;;;;12.88;7.75;;;20.60;51.60;;;;;;5018415;28;20037;-64
2022/04/26 15:47:57;;;;;;;17.35;8.63;;;20.60;51.40;;;;;;5027235;28;20092;-64
2022/04/26 15:50:23;;;;;;;17.45;8.60;;;20.60;52.90;;;;;;5016147;28;20522;-64
2022/04/26 15:52:50;;;;;;;17.20;8.70;;;20.60;51.80;;;;;;5014046;28;20036;-63
2022/04/26 15:55:17;;;;;;;16.73;8.73;;;20.60;51.50;;;;;;5025523;28;20072;-64
2022/04/26 15:57:44;;;;;;;15.40;8.43;;;20.70;50.90;;;;;;5022257;28;20045;-64
2022/04/26 16:00:11;;;;;;;16.42;8.68;;;20.70;50.70;;;;;;5024430;28;20605;-64
2022/04/26 16:02:36;;;;;;;18.38;8.15;;;20.70;50.50;;;;;;5023708;28;20586;-63
2022/04/26 16:05:03;;;;;;;16.85;8.05;;;20.70;51.00;;;;;;5015544;28;20124;-63
2022/04/26 16:07:29;;;;;;;16.15;8.45;;;20.70;50.40;;;;;;5021475;28;20049;-63
2022/04/26 16:20:54;;;;;;;17.58;7.85;;;20.60;50.40;;;;;;5018033;28;20109;-63
2022/04/26 16:23:20;;;;;;;16.25;7.93;;;20.60;51.80;;;;;;5013542;28;20422;-63
2022/04/26 16:25:50;;;;;;;14.90;8.00;;;20.60;51.70;;;;;;5016670;28;20091;-63
2022/04/26 16:28:17;;;;;;;15.15;7.93;;;20.60;50.30;;;;;;5018009;28;20040;-63
2022/04/26 16:30:43;;;;;;;18.23;7.90;;;20.60;50.10;;;;;;5012197;28;20061;-62
2022/04/26 16:33:12;;;;;;;17.42;7.68;;;20.60;50.40;;;;;;5014595;28;20061;-63
2022/04/26 16:35:37;;;;;;;15.23;8.25;;;20.50;50.30;;;;;;5015994;28;20113;-63
2022/04/26 16:38:03;;;;;;;14.98;7.75;;;20.50;50.60;;;;;;5017396;28;20117;-63
2022/04/26 16:40:29;;;;;;;14.68;7.40;;;20.40;50.50;;;;;;5013239;28;20117;-63
2022/04/26 16:42:54;;;;;;;17.95;8.27;;;20.40;50.50;;;;;;5016840;28;20030;-63
2022/04/26 16:45:21;;;;;;;15.18;7.18;;;20.40;50.30;;;;;;5014453;28;20022;-63
2022/04/26 16:47:46;;;;;;;17.95;7.95;;;20.40;50.70;;;;;;5017601;28;20081;-63
2022/04/26 16:50:12;;;;;;;17.73;8.55;;;20.30;50.10;;;;;;5021842;28;20053;-63
2022/04/26 16:52:38;;;;;;;14.27;7.38;;;20.30;50.50;;;;;;5020263;28;20032;-63
2022/04/26 16:55:04;;;;;;;15.32;7.78;;;20.30;50.00;;;;;;5017893;28;20277;-63
2022/04/26 16:57:31;;;;;;;15.75;6.85;;;20.30;50.20;;;;;;5016903;28;20030;-63
2022/04/26 16:59:57;;;;;;;16.25;9.27;;;20.40;50.20;;;;;;5011284;28;20418;-63
2022/04/26 17:02:24;;;;;;;19.10;8.95;;;20.30;50.40;;;;;;5009933;28;20029;-63
2022/04/26 17:04:49;;;;;;;18.08;8.98;;;20.20;50.30;;;;;;5019719;28;20644;-63
2022/04/26 17:07:15;;;;;;;20.45;8.95;;;20.20;50.50;;;;;;5014738;28;20092;-63
2022/04/26 17:09:41;;;;;;;18.20;9.10;;;20.20;50.70;;;;;;5016168;28;20029;-63